Time;durP1;ratioP1;P1;durP2;ratioP2;P2;SDS_P1;SDS_P2;PMS_P1;PMS_P2;Temp;Humidity;BMP_temperature;BMP_pressure;BME280_temperature;BME280_humidity;BME280_pressure;Samples;Min_cycle;Max_cycle;Signal;HPM_P1;HPM_P2
2022/03/08 00:00:53;;;;;;;22.37;12.03;;;;;;;-0.22;45.77;99085.16;5110189;28;20224;-58
2022/03/08 00:03:19;;;;;;;32.30;15.80;;;;;;;-0.35;46.62;99073.78;5106979;28;20186;-58
2022/03/08 00:05:46;;;;;;;22.23;12.57;;;;;;;-0.41;47.30;99086.91;5112821;28;20199;-58
2022/03/08 00:08:13;;;;;;;24.47;12.27;;;;;;;-0.50;46.64;99090.69;5113392;28;20182;-58
2022/03/08 00:10:40;;;;;;;25.80;13.00;;;;;;;-0.34;45.86;99080.59;5113702;28;20206;-58
2022/03/08 00:13:07;;;;;;;25.67;12.50;;;;;;;-0.25;46.18;99098.13;5113329;28;20210;-58
2022/03/08 00:15:34;;;;;;;22.63;12.37;;;;;;;-0.33;46.83;99093.31;5113178;28;20201;-57
2022/03/08 00:18:03;;;;;;;25.17;13.43;;;;;;;-0.30;45.83;99079.53;5113268;28;20198;-58
2022/03/08 00:20:31;;;;;;;24.33;13.03;;;;;;;-0.41;46.01;99082.59;5113332;28;20212;-58
2022/03/08 00:22:58;;;;;;;25.20;12.77;;;;;;;-0.47;46.20;99076.00;5112800;28;20189;-58
2022/03/08 00:25:25;;;;;;;23.00;12.20;;;;;;;-0.58;47.37;99085.09;5112960;28;20217;-58
2022/03/08 00:27:51;;;;;;;24.13;12.60;;;;;;;-0.79;50.28;99072.34;5094908;28;20256;-57
2022/03/08 00:30:49;;;;;;;20.10;11.07;;;;;;;-0.82;48.11;99075.84;5094771;28;20210;-58
2022/03/08 00:33:17;;;;;;;23.27;12.88;;;;;;;-1.00;48.64;99077.50;5112853;28;20502;-58
2022/03/08 00:35:44;;;;;;;21.63;11.83;;;;;;;-1.03;47.99;99069.94;5094143;28;20221;-58
2022/03/08 00:38:11;;;;;;;24.50;12.00;;;;;;;-1.15;49.21;99075.59;5094758;28;20261;-57
2022/03/08 00:40:38;;;;;;;22.63;11.53;;;;;;;-1.35;50.17;99075.53;5089262;28;20218;-58
2022/03/08 00:43:06;;;;;;;25.60;12.37;;;;;;;-1.43;49.78;99069.91;5102203;28;20189;-58
2022/03/08 00:45:35;;;;;;;24.47;12.13;;;;;;;-1.16;48.77;99063.69;5102426;28;20221;-58
2022/03/08 00:48:01;;;;;;;22.57;12.40;;;;;;;-1.19;50.52;99065.47;5104499;28;20755;-57
2022/03/08 00:50:31;;;;;;;24.13;11.97;;;;;;;-1.40;51.49;99064.66;5100439;28;20592;-58
2022/03/08 00:52:59;;;;;;;23.23;12.23;;;;;;;-1.48;52.12;99064.97;5104527;28;20205;-57
2022/03/08 00:55:29;;;;;;;21.60;11.57;;;;;;;-1.66;52.13;99058.06;5112042;28;20183;-58
2022/03/08 00:57:56;;;;;;;22.83;12.20;;;;;;;-1.79;51.59;99061.13;5111370;28;20204;-57
2022/03/08 01:00:25;;;;;;;24.63;12.30;;;;;;;-1.82;53.01;99063.81;5110829;28;20221;-57
2022/03/08 01:02:52;;;;;;;21.80;11.77;;;;;;;-1.95;52.36;99070.28;5105187;28;20198;-58
2022/03/08 01:05:19;;;;;;;23.33;12.00;;;;;;;-2.00;53.37;99065.34;5111619;28;20272;-58
2022/03/08 01:07:48;;;;;;;25.87;12.47;;;;;;;-2.12;54.23;99073.53;5111862;28;20266;-58
2022/03/08 01:10:17;;;;;;;21.77;11.93;;;;;;;-2.22;54.11;99067.91;5093619;28;20270;-58
2022/03/08 01:12:44;;;;;;;22.57;11.77;;;;;;;-2.28;55.48;99060.47;5111641;28;20662;-57
2022/03/08 01:15:12;;;;;;;23.13;11.83;;;;;;;-2.25;55.11;99056.09;5111697;28;20193;-58
2022/03/08 01:17:41;;;;;;;23.37;11.33;;;;;;;-2.20;56.81;99053.34;5112384;28;20185;-57
2022/03/08 01:20:11;;;;;;;21.17;11.60;;;;;;;-1.72;51.87;99042.94;5108381;28;20207;-58
2022/03/08 01:22:39;;;;;;;23.17;12.27;;;;;;;-1.82;53.50;99043.31;5110593;28;20204;-57
2022/03/08 01:25:09;;;;;;;21.07;11.57;;;;;;;-1.94;55.72;99054.88;5111589;28;20191;-57
2022/03/08 01:27:36;;;;;;;23.10;11.47;;;;;;;-1.77;52.11;99045.69;5110581;28;20639;-57
2022/03/08 01:30:07;;;;;;;19.37;10.57;;;;;;;-1.83;53.01;99040.81;5111040;28;20300;-57
2022/03/08 01:32:34;;;;;;;21.50;10.03;;;;;;;-1.74;50.09;99045.56;5109785;28;20250;-57
2022/03/08 01:35:01;;;;;;;20.00;10.97;;;;;;;-1.77;55.12;99032.06;5111327;28;20265;-57
2022/03/08 01:37:28;;;;;;;19.70;11.70;;;;;;;-2.00;55.60;99031.28;5111951;28;20666;-57
2022/03/08 01:39:55;;;;;;;21.80;11.23;;;;;;;-2.03;55.15;99031.38;5110590;28;20254;-57
2022/03/08 01:42:25;;;;;;;22.30;10.63;;;;;;;-2.23;55.76;99022.78;5110144;28;20596;-57
2022/03/08 01:44:53;;;;;;;19.47;10.47;;;;;;;-2.25;55.93;99012.63;5111367;28;20193;-58
2022/03/08 01:47:22;;;;;;;21.77;9.03;;;;;;;-2.24;56.64;99014.28;5110260;28;20213;-57
2022/03/08 01:49:50;;;;;;;21.37;10.77;;;;;;;-2.32;56.53;99006.06;5111697;28;20205;-57
2022/03/08 01:52:18;;;;;;;18.77;9.67;;;;;;;-2.39;57.27;99013.13;5093071;28;20193;-58
2022/03/08 01:54:45;;;;;;;21.20;10.33;;;;;;;-2.41;57.69;99014.91;5111067;28;20186;-58
2022/03/08 01:57:13;;;;;;;16.47;9.60;;;;;;;-2.54;57.33;99004.34;5111233;28;20181;-58
2022/03/08 01:59:42;;;;;;;17.20;9.40;;;;;;;-2.55;57.42;98996.72;5110449;28;20216;-58
2022/03/08 02:02:11;;;;;;;18.23;9.53;;;;;;;-2.61;56.40;98994.41;5110235;28;20236;-58
2022/03/08 02:04:38;;;;;;;19.70;13.05;;;;;;;-2.53;55.97;98990.66;5101724;28;20438;-58
2022/03/08 02:07:05;;;;;;;16.10;9.87;;;;;;;-2.53;55.28;98984.72;5110897;28;20558;-58
2022/03/08 02:09:32;;;;;;;16.93;9.80;;;;;;;-2.59;55.59;98990.91;5111001;28;20221;-58
2022/03/08 02:11:59;;;;;;;16.00;9.47;;;;;;;-2.42;55.54;98977.47;5111103;28;20242;-58
2022/03/08 02:14:28;;;;;;;21.00;9.83;;;;;;;-2.22;54.81;98986.06;5110823;28;20234;-59
2022/03/08 02:16:56;;;;;;;17.53;9.43;;;;;;;-2.21;54.26;98984.38;5111189;28;20185;-58
2022/03/08 02:19:23;;;;;;;18.43;9.13;;;;;;;-2.25;55.79;98984.50;5111151;28;20223;-59
2022/03/08 02:21:53;;;;;;;16.83;8.67;;;;;;;-2.45;56.65;98977.59;5110843;28;20186;-58
2022/03/08 02:24:20;;;;;;;14.93;8.53;;;;;;;-2.40;56.98;98969.75;5110667;28;20177;-58
2022/03/08 02:26:47;;;;;;;17.43;9.13;;;;;;;-2.28;54.87;98966.72;5110892;28;20230;-58
2022/03/08 02:29:14;;;;;;;16.67;8.47;;;;;;;-2.03;52.78;98975.09;5110939;28;20700;-58
2022/03/08 02:31:41;;;;;;;17.53;8.70;;;;;;;-1.80;50.09;98972.44;5110960;28;20198;-58
2022/03/08 02:34:07;;;;;;;16.00;8.50;;;;;;;-1.80;51.93;98975.00;5109783;28;20268;-58
2022/03/08 02:36:34;;;;;;;14.43;7.97;;;;;;;-1.80;52.45;98966.47;5110882;28;20680;-57
2022/03/08 02:39:05;;;;;;;13.97;7.20;;;;;;;-1.73;50.11;98954.28;5111327;28;20185;-57
2022/03/08 02:41:32;;;;;;;13.10;7.77;;;;;;;-1.72;50.66;98956.75;5110646;28;20191;-58
2022/03/08 02:43:58;;;;;;;14.83;7.97;;;;;;;-1.81;52.10;98946.91;5110093;28;20182;-58
2022/03/08 02:46:25;;;;;;;13.00;7.73;;;;;;;-1.94;52.80;98956.81;5109830;28;20208;-58
2022/03/08 02:48:52;;;;;;;15.30;7.93;;;;;;;-1.89;53.34;98957.47;5110542;28;20189;-57
2022/03/08 02:51:20;;;;;;;13.10;7.47;;;;;;;-1.68;50.53;98960.84;5107314;28;20371;-57
2022/03/08 02:53:47;;;;;;;15.87;8.37;;;;;;;-1.62;49.78;98962.31;5109768;28;20181;-57
2022/03/08 02:56:15;;;;;;;16.87;7.90;;;;;;;-1.76;50.90;98957.78;5109970;28;20177;-59
2022/03/08 02:58:41;;;;;;;19.00;9.70;;;;;;;-1.85;50.97;98941.09;5110623;28;20181;-58
2022/03/08 03:01:08;;;;;;;16.90;8.20;;;;;;;-1.76;51.55;98949.28;5110414;28;20252;-59
2022/03/08 03:03:35;;;;;;;19.27;10.70;;;;;;;-1.66;51.40;98945.44;5108219;28;20317;-59
2022/03/08 03:06:01;;;;;;;23.47;12.07;;;;;;;-1.76;51.79;98952.66;5103330;28;20247;-59
2022/03/08 03:08:28;;;;;;;22.00;11.57;;;;;;;-1.91;52.56;98948.19;5110553;28;20187;-59
2022/03/08 03:10:55;;;;;;;21.20;11.33;;;;;;;-2.14;53.76;98949.97;5110411;28;20276;-59
2022/03/08 03:13:23;;;;;;;19.67;9.73;;;;;;;-2.37;54.19;98949.19;5110084;28;20187;-59
2022/03/08 03:15:50;;;;;;;14.90;7.60;;;;;;;-2.43;56.63;98963.00;5110124;28;20182;-59
2022/03/08 03:18:16;;;;;;;19.77;10.63;;;;;;;-2.29;55.07;98949.69;5110303;28;20192;-59
2022/03/08 03:20:43;;;;;;;20.60;11.07;;;;;;;-2.27;54.55;98953.03;5110475;28;20205;-59
2022/03/08 03:23:10;;;;;;;22.10;11.37;;;;;;;-2.47;55.46;98952.97;5110103;28;20237;-59
2022/03/08 03:25:37;;;;;;;23.23;12.03;;;;;;;-2.38;54.74;98952.63;5106141;28;20666;-59
2022/03/08 03:28:04;;;;;;;21.97;11.13;;;;;;;-2.48;55.98;98948.75;5105272;28;20205;-59
2022/03/08 03:30:32;;;;;;;31.27;14.87;;;;;;;-2.56;57.07;98954.16;5102852;28;20269;-59
2022/03/08 03:33:01;;;;;;;26.23;13.80;;;;;;;-2.57;57.69;98948.22;5105316;28;20736;-59
2022/03/08 03:35:27;;;;;;;26.60;14.20;;;;;;;-2.63;58.28;98943.34;5099751;28;20204;-59
2022/03/08 03:37:55;;;;;;;29.17;15.77;;;;;;;-2.78;58.44;98949.06;5100655;28;20173;-59
2022/03/08 03:40:21;;;;;;;29.03;14.50;;;;;;;-2.91;58.78;98946.97;5101735;28;20205;-59
2022/03/08 03:42:48;;;;;;;25.67;13.10;;;;;;;-3.01;59.95;98937.97;5100201;28;20190;-59
2022/03/08 03:45:15;;;;;;;30.67;13.50;;;;;;;-3.10;61.00;98941.72;5099505;28;20264;-59
2022/03/08 03:47:44;;;;;;;26.63;13.17;;;;;;;-3.12;60.84;98930.72;5098517;28;20210;-59
2022/03/08 03:50:11;;;;;;;25.20;12.47;;;;;;;-3.17;61.34;98942.81;5098008;28;20764;-59
2022/03/08 03:52:38;;;;;;;23.27;13.07;;;;;;;-3.33;61.59;98952.78;5097759;28;20191;-59
2022/03/08 03:55:06;;;;;;;25.60;13.33;;;;;;;-3.43;62.16;98944.59;5098245;28;20185;-60
2022/03/08 03:57:33;;;;;;;25.70;12.97;;;;;;;-3.45;62.37;98949.75;5100631;28;20383;-59
2022/03/08 04:00:00;;;;;;;24.33;11.53;;;;;;;-3.48;62.18;98951.59;5101943;28;20642;-59
2022/03/08 04:02:27;;;;;;;27.47;13.20;;;;;;;-3.49;62.22;98945.66;5101954;28;20177;-59
2022/03/08 04:04:55;;;;;;;20.93;10.63;;;;;;;-3.57;62.75;98940.81;5102905;28;20185;-58
2022/03/08 04:07:22;;;;;;;17.40;8.70;;;;;;;-3.61;63.67;98946.09;5102032;28;20198;-58
2022/03/08 04:09:49;;;;;;;16.17;9.20;;;;;;;-3.67;63.85;98954.75;5101983;28;20208;-59
2022/03/08 04:12:16;;;;;;;18.87;9.27;;;;;;;-3.72;64.03;98944.72;5103218;28;20187;-59
2022/03/08 04:14:43;;;;;;;17.97;8.70;;;;;;;-3.67;63.84;98948.84;5102173;28;20186;-59
2022/03/08 04:17:10;;;;;;;14.90;8.87;;;;;;;-3.77;63.57;98954.25;5083346;28;20582;-58
2022/03/08 04:19:37;;;;;;;15.20;8.50;;;;;;;-3.76;63.65;98960.22;5101189;28;20206;-58
2022/03/08 04:22:05;;;;;;;13.97;7.50;;;;;;;-3.57;63.38;98968.88;5101996;28;20716;-59
2022/03/08 04:24:33;;;;;;;14.97;7.83;;;;;;;-3.73;63.47;98958.38;5102964;28;20193;-58
2022/03/08 04:26:59;;;;;;;18.50;8.73;;;;;;;-3.82;63.55;98961.25;5106850;28;20258;-58
2022/03/08 04:29:26;;;;;;;17.00;8.53;;;;;;;-3.84;63.17;98952.00;5104856;28;20210;-58
2022/03/08 04:31:53;;;;;;;16.33;7.43;;;;;;;-3.62;61.99;98946.97;5103355;28;20182;-58
2022/03/08 04:34:20;;;;;;;16.33;9.88;;;;;;;-3.65;63.10;98950.44;5100060;28;20455;-58
2022/03/08 04:36:47;;;;;;;20.57;10.53;;;;;;;-3.69;63.05;98950.63;5101932;28;20181;-58
2022/03/08 04:39:15;;;;;;;20.50;9.60;;;;;;;-3.70;62.27;98944.66;5102758;28;20672;-58
2022/03/08 04:41:42;;;;;;;14.53;7.03;;;;;;;-3.66;63.86;98953.06;5102808;28;20193;-58
2022/03/08 04:44:09;;;;;;;13.73;6.93;;;;;;;-3.69;62.49;98942.97;5082246;28;20596;-58
2022/03/08 04:46:36;;;;;;;18.20;8.63;;;;;;;-3.72;62.83;98952.38;5101137;28;20208;-58
2022/03/08 04:49:03;;;;;;;17.63;9.37;;;;;;;-3.69;62.79;98958.28;5102888;28;20193;-58
2022/03/08 04:51:30;;;;;;;19.97;10.07;;;;;;;-3.62;61.47;98958.00;5101052;28;20201;-58
2022/03/08 04:53:57;;;;;;;12.03;6.97;;;;;;;-3.66;62.89;98948.78;5100697;28;20186;-58
2022/03/08 04:56:25;;;;;;;13.23;6.77;;;;;;;-3.68;62.36;98954.84;5102606;28;20230;-58
2022/03/08 04:58:53;;;;;;;12.63;6.93;;;;;;;-3.45;60.32;98954.03;5101232;28;20236;-58
2022/03/08 05:01:20;;;;;;;16.13;7.10;;;;;;;-3.52;60.64;98952.56;5100358;28;20305;-58
2022/03/08 05:03:49;;;;;;;14.40;6.97;;;;;;;-3.47;60.44;98955.78;5100310;28;20213;-58
2022/03/08 05:06:16;;;;;;;14.70;6.60;;;;;;;-3.43;60.57;98963.31;5100773;28;20671;-58
2022/03/08 05:08:43;;;;;;;9.77;5.90;;;;;;;-3.42;59.46;98964.97;5101915;28;20664;-58
2022/03/08 05:11:09;;;;;;;12.77;6.17;;;;;;;-3.43;59.75;98967.56;5100528;28;20233;-58
2022/03/08 05:13:38;;;;;;;16.83;8.27;;;;;;;-3.26;59.13;98967.81;5101136;28;20193;-58
2022/03/08 05:16:05;;;;;;;12.47;7.10;;;;;;;-3.34;58.15;98980.00;5104010;28;20190;-57
2022/03/08 05:18:32;;;;;;;15.90;7.40;;;;;;;-3.32;59.26;98969.75;5105804;28;20216;-58
2022/03/08 05:20:59;;;;;;;15.70;8.00;;;;;;;-3.43;59.79;98973.53;5100586;28;20209;-58
2022/03/08 05:23:26;;;;;;;15.37;7.30;;;;;;;-3.52;60.10;98971.28;5102347;28;20689;-58
2022/03/08 05:25:53;;;;;;;12.53;7.07;;;;;;;-3.62;59.59;98968.19;5100687;28;20186;-57
2022/03/08 05:28:20;;;;;;;12.10;6.30;;;;;;;-3.65;59.71;98954.72;5100208;28;20201;-58
2022/03/08 05:30:48;;;;;;;9.00;5.10;;;;;;;-3.67;61.25;98959.88;5102390;28;20228;-58
2022/03/08 05:33:15;;;;;;;31.33;12.30;;;;;;;-3.63;61.66;98953.78;5101109;28;20189;-58
2022/03/08 05:35:42;;;;;;;43.07;14.73;;;;;;;-3.67;61.75;98956.50;5099550;28;20201;-58
2022/03/08 05:38:09;;;;;;;51.73;18.87;;;;;;;-3.61;60.87;98946.09;5100082;28;20523;-58
2022/03/08 05:40:35;;;;;;;25.93;10.20;;;;;;;-3.66;60.51;98953.88;5100833;28;20205;-58
2022/03/08 05:43:02;;;;;;;13.60;6.50;;;;;;;-3.68;61.36;98959.94;5101552;28;20200;-58
2022/03/08 05:45:29;;;;;;;10.77;5.53;;;;;;;-3.64;62.83;98959.75;5099840;28;20205;-58
2022/03/08 05:47:58;;;;;;;12.83;6.70;;;;;;;-3.68;62.07;98958.22;5100489;28;20213;-58
2022/03/08 05:50:25;;;;;;;9.33;4.77;;;;;;;-3.71;63.35;98948.13;5101650;28;20240;-58
2022/03/08 05:52:52;;;;;;;11.37;5.07;;;;;;;-3.80;62.80;98945.91;5099962;28;20664;-59
2022/03/08 05:55:19;;;;;;;10.47;5.63;;;;;;;-3.88;62.37;98929.13;5099567;28;20185;-58
2022/03/08 05:57:46;;;;;;;12.57;6.20;;;;;;;-3.90;62.45;98947.91;5101446;28;20606;-58
2022/03/08 06:00:14;;;;;;;16.03;8.33;;;;;;;-3.77;61.98;98948.34;5100115;28;20206;-58
2022/03/08 06:02:41;;;;;;;13.77;6.47;;;;;;;-3.60;60.99;98929.88;5104017;28;20712;-58
2022/03/08 06:05:10;;;;;;;13.80;6.97;;;;;;;-3.53;60.27;98936.44;5102553;28;20208;-58
2022/03/08 06:07:37;;;;;;;14.13;6.40;;;;;;;-3.56;60.38;98934.81;5102580;28;20201;-58
2022/03/08 06:10:07;;;;;;;11.40;5.53;;;;;;;-3.23;59.33;98935.38;5101729;28;20204;-58
2022/03/08 06:12:34;;;;;;;9.23;5.87;;;;;;;-3.00;56.57;98940.50;5100033;28;20194;-58
2022/03/08 06:15:00;;;;;;;14.53;6.27;;;;;;;-2.86;55.88;98939.13;5098933;28;20250;-58
2022/03/08 06:17:27;;;;;;;15.97;6.93;;;;;;;-2.91;55.22;98946.97;5099303;28;20646;-58
2022/03/08 06:19:54;;;;;;;12.53;6.17;;;;;;;-2.87;55.43;98945.94;5100535;28;20208;-58
2022/03/08 06:22:22;;;;;;;8.43;5.13;;;;;;;-2.79;57.93;98944.84;5100409;28;20653;-59
2022/03/08 06:24:49;;;;;;;11.03;5.37;;;;;;;-2.88;57.79;98948.59;5098914;28;20191;-59
2022/03/08 06:27:16;;;;;;;15.47;7.93;;;;;;;-2.90;59.10;98956.28;5099879;28;20205;-58
2022/03/08 06:29:43;;;;;;;10.77;5.60;;;;;;;-2.94;58.37;98947.06;5100950;28;20209;-58
2022/03/08 06:32:10;;;;;;;14.23;8.23;;;;;;;-2.77;58.10;98945.59;5098898;28;20200;-58
2022/03/08 06:34:37;;;;;;;17.65;10.35;;;;;;;-2.54;56.21;98950.66;5098544;28;20434;-58
2022/03/08 06:37:04;;;;;;;13.90;8.17;;;;;;;-2.64;56.20;98957.03;5101029;28;20185;-57
2022/03/08 06:39:32;;;;;;;26.57;13.60;;;;;;;-2.61;57.94;98950.94;5099438;28;20233;-58
2022/03/08 06:41:59;;;;;;;20.80;11.57;;;;;;;-2.68;58.74;98950.38;5099259;28;20706;-58
2022/03/08 06:44:26;;;;;;;26.77;14.53;;;;;;;-2.75;59.51;98948.94;5100418;28;20568;-58
2022/03/08 06:46:53;;;;;;;21.13;10.73;;;;;;;-2.73;59.13;98957.38;5099910;28;20407;-58
2022/03/08 06:49:19;;;;;;;14.80;7.47;;;;;;;-2.71;59.52;98961.56;5099406;28;20214;-59
2022/03/08 06:51:46;;;;;;;9.17;5.43;;;;;;;-2.73;60.72;98959.94;5104459;28;20217;-58
2022/03/08 06:54:13;;;;;;;8.90;5.60;;;;;;;-2.55;59.40;98956.66;5101734;28;20183;-58
2022/03/08 06:56:42;;;;;;;10.80;6.33;;;;;;;-2.59;58.79;98956.84;5101356;28;20273;-60
2022/03/08 06:59:09;;;;;;;12.27;6.63;;;;;;;-2.56;58.76;98967.78;5080217;28;20597;-57
2022/03/08 07:01:36;;;;;;;12.05;7.93;;;;;;;-2.28;56.35;98960.75;5099074;28;20508;-60
2022/03/08 07:04:03;;;;;;;13.57;8.27;;;;;;;-2.40;57.80;98972.31;5099406;28;20425;-60
2022/03/08 07:06:30;;;;;;;13.53;6.53;;;;;;;-2.40;57.96;98979.97;5098753;28;20194;-60
2022/03/08 07:08:57;;;;;;;10.20;5.13;;;;;;;-2.38;57.67;98984.13;5099222;28;20206;-61
2022/03/08 07:11:24;;;;;;;6.77;4.10;;;;;;;-2.34;56.59;98984.84;5100375;28;20185;-61
2022/03/08 07:13:53;;;;;;;8.47;4.40;;;;;;;-2.19;59.01;98992.81;5098522;28;20186;-60
2022/03/08 07:16:20;;;;;;;6.93;4.10;;;;;;;-2.20;57.89;99001.38;5098685;28;20187;-60
2022/03/08 07:18:46;;;;;;;8.47;4.90;;;;;;;-1.99;59.39;98999.69;5100325;28;20182;-60
2022/03/08 07:21:13;;;;;;;9.97;5.37;;;;;;;-1.43;53.17;98995.66;5099019;28;20206;-60
2022/03/08 07:23:40;;;;;;;16.27;8.13;;;;;;;-1.23;53.09;98996.53;5098510;28;20676;-60
2022/03/08 07:26:09;;;;;;;17.43;10.43;;;;;;;-1.01;50.44;98998.09;5100030;28;20178;-61
2022/03/08 07:28:36;;;;;;;11.17;6.77;;;;;;;-0.92;51.54;99002.81;5099244;28;20298;-60
2022/03/08 07:31:04;;;;;;;12.83;9.20;;;;;;;-0.90;51.79;98998.47;5098416;28;20228;-60
2022/03/08 07:33:31;;;;;;;14.43;7.87;;;;;;;-0.77;51.92;99014.97;5100703;28;20201;-60
2022/03/08 07:35:58;;;;;;;9.80;5.47;;;;;;;-0.38;49.18;99004.69;5102026;28;20603;-61
2022/03/08 07:38:25;;;;;;;12.13;6.27;;;;;;;-0.27;49.57;98997.31;5106453;28;20182;-61
2022/03/08 07:40:53;;;;;;;11.27;6.63;;;;;;;-0.12;49.28;99002.63;5104982;28;20546;-61
2022/03/08 07:43:19;;;;;;;16.43;5.27;;;;;;;-0.06;50.51;98998.00;5106135;28;20193;-61
2022/03/08 07:45:46;;;;;;;13.60;5.90;;;;;;;-0.18;50.57;98986.63;5101565;28;20260;-61
2022/03/08 07:48:14;;;;;;;11.77;5.27;;;;;;;-0.27;50.86;99001.59;5103379;28;20683;-61
2022/03/08 07:50:41;;;;;;;9.77;6.10;;;;;;;-0.08;49.23;98999.00;5103831;28;20717;-61
2022/03/08 07:53:08;;;;;;;12.17;6.43;;;;;;;0.25;49.11;99000.81;5102024;28;20179;-61
2022/03/08 07:55:35;;;;;;;10.93;6.40;;;;;;;0.31;49.75;99002.25;5102692;28;20255;-61
2022/03/08 07:58:04;;;;;;;9.37;6.17;;;;;;;0.54;48.64;98991.63;5103797;28;20186;-61
2022/03/08 08:00:33;;;;;;;12.37;6.60;;;;;;;0.66;48.48;99002.19;5101929;28;20742;-63
2022/03/08 08:03:03;;;;;;;14.03;7.77;;;;;;;0.76;47.89;99012.84;5102120;28;20241;-61
2022/03/08 08:05:33;;;;;;;9.00;5.97;;;;;;;0.86;47.55;99009.72;5101661;28;20195;-61
2022/03/08 08:08:00;;;;;;;9.43;6.20;;;;;;;1.02;47.05;99012.31;5102138;28;20194;-61
2022/03/08 08:10:27;;;;;;;10.00;6.37;;;;;;;1.14;46.96;99021.13;5103755;28;20218;-61
2022/03/08 08:12:54;;;;;;;10.47;6.37;;;;;;;1.24;46.83;99016.31;5102053;28;20195;-61
2022/03/08 08:15:21;;;;;;;9.03;6.07;;;;;;;1.37;46.59;99015.66;5101667;28;20675;-61
2022/03/08 08:17:48;;;;;;;11.43;6.13;;;;;;;1.57;44.81;99017.97;5103658;28;20182;-61
2022/03/08 08:20:15;;;;;;;9.60;6.93;;;;;;;1.64;45.46;99013.31;5102310;28;20268;-61
2022/03/08 08:22:43;;;;;;;11.30;6.97;;;;;;;1.70;46.36;99030.19;5101376;28;20697;-62
2022/03/08 08:25:11;;;;;;;13.97;6.73;;;;;;;1.82;45.42;99006.34;5100745;28;20188;-62
2022/03/08 08:27:38;;;;;;;10.83;6.57;;;;;;;1.87;45.69;99012.06;5090049;28;20536;-61
2022/03/08 08:30:07;;;;;;;11.03;6.60;;;;;;;1.96;45.04;99008.13;5103752;28;20202;-61
2022/03/08 08:32:34;;;;;;;9.47;6.47;;;;;;;2.06;44.01;99009.25;5104040;28;20664;-61
2022/03/08 08:35:00;;;;;;;15.33;6.93;;;;;;;2.12;43.83;99018.38;5101279;28;20192;-62
2022/03/08 08:37:27;;;;;;;15.87;8.43;;;;;;;2.33;44.02;99024.06;5103282;28;20190;-61
2022/03/08 08:39:56;;;;;;;28.33;15.07;;;;;;;2.29;47.12;99025.16;5101725;28;20216;-62
2022/03/08 08:42:22;;;;;;;23.93;13.30;;;;;;;2.27;46.52;99021.00;5100965;28;20564;-61
2022/03/08 08:44:49;;;;;;;22.10;11.00;;;;;;;2.22;46.27;99019.50;5100774;28;20717;-61
2022/03/08 08:47:16;;;;;;;30.73;14.57;;;;;;;2.25;47.13;99030.56;5102100;28;20182;-62
2022/03/08 08:49:43;;;;;;;26.67;15.20;;;;;;;2.11;48.72;99027.03;5107033;28;20703;-62
2022/03/08 08:52:11;;;;;;;30.67;16.33;;;;;;;1.82;49.88;99024.34;5105711;28;20657;-61
2022/03/08 08:54:38;;;;;;;30.70;15.63;;;;;;;1.54;50.89;99025.88;5105533;28;20191;-61
2022/03/08 08:57:06;;;;;;;25.77;15.57;;;;;;;1.52;51.26;99032.03;5102844;28;20186;-61
2022/03/08 08:59:33;;;;;;;25.73;15.30;;;;;;;1.56;51.64;99038.66;5101552;28;20276;-60
2022/03/08 09:02:01;;;;;;;25.60;13.93;;;;;;;1.70;50.11;99027.59;5104051;28;20198;-60
2022/03/08 09:04:27;;;;;;;21.93;12.33;;;;;;;1.67;47.74;99026.00;5105596;28;20195;-61
2022/03/08 09:14:50;;;;;;;21.40;10.77;;;;;;;1.89;44.82;99015.38;5102795;28;20732;-60
2022/03/08 09:24:51;;;;;;;17.33;10.43;;;;;;;2.15;45.50;99005.31;5105820;28;20215;-60
2022/03/08 09:27:19;;;;;;;21.10;11.17;;;;;;;2.26;45.89;99003.88;5104375;28;20204;-61
2022/03/08 09:29:45;;;;;;;18.23;10.30;;;;;;;2.28;44.38;99010.63;5102605;28;20223;-60
2022/03/08 09:32:15;;;;;;;21.93;10.80;;;;;;;2.35;44.91;99016.22;5100520;28;20684;-61
2022/03/08 09:34:42;;;;;;;22.07;10.57;;;;;;;2.40;44.86;99005.66;5101731;28;20213;-61
2022/03/08 09:37:09;;;;;;;20.43;11.10;;;;;;;2.36;45.55;99017.88;5100750;28;20181;-61
2022/03/08 09:39:36;;;;;;;23.97;11.17;;;;;;;2.45;45.60;99012.19;5100544;28;20203;-61
2022/03/08 09:42:04;;;;;;;19.97;11.50;;;;;;;2.48;45.55;99019.75;5101583;28;20189;-61
2022/03/08 09:44:31;;;;;;;19.40;10.60;;;;;;;2.51;45.96;99024.72;5100315;28;20186;-61
2022/03/08 09:46:58;;;;;;;18.47;10.90;;;;;;;2.55;45.54;99021.97;5099794;28;20666;-61
2022/03/08 09:49:26;;;;;;;18.30;10.60;;;;;;;2.61;46.13;99016.47;5081572;28;20227;-61
2022/03/08 09:51:54;;;;;;;19.37;11.47;;;;;;;2.76;45.92;99014.72;5100131;28;20185;-61
2022/03/08 09:54:21;;;;;;;18.13;10.70;;;;;;;2.86;45.65;99022.75;5101366;28;20177;-62
2022/03/08 09:56:49;;;;;;;19.57;11.60;;;;;;;2.74;46.48;99022.56;5099831;28;20205;-61
2022/03/08 09:59:16;;;;;;;18.97;10.80;;;;;;;2.79;45.71;99009.38;5099723;28;20208;-61
2022/03/08 10:01:44;;;;;;;17.93;10.43;;;;;;;2.92;44.96;99019.81;5101471;28;20189;-61
2022/03/08 10:04:15;;;;;;;18.17;10.20;;;;;;;2.95;45.08;99017.03;5100010;28;20723;-62
2022/03/08 10:06:47;;;;;;;16.73;10.43;;;;;;;3.04;45.17;99019.06;5099460;28;20474;-62
2022/03/08 10:09:15;;;;;;;17.60;9.67;;;;;;;3.14;44.23;99010.75;5100041;28;20251;-62
2022/03/08 10:11:43;;;;;;;17.77;10.43;;;;;;;3.19;44.83;99006.13;5101573;28;20207;-62
2022/03/08 10:14:13;;;;;;;26.60;10.10;;;;;;;3.28;43.94;99000.41;5081257;28;20197;-62
2022/03/08 10:16:44;;;;;;;16.40;9.43;;;;;;;3.46;42.88;99007.91;5099187;28;20219;-62
2022/03/08 10:19:12;;;;;;;15.57;9.53;;;;;;;3.45;43.18;99006.25;5100343;28;20246;-62
2022/03/08 10:21:40;;;;;;;20.90;9.60;;;;;;;3.56;43.86;99000.44;5101173;28;20228;-62
2022/03/08 10:24:14;;;;;;;15.23;8.90;;;;;;;3.62;42.55;98997.47;5098943;28;20187;-62
2022/03/08 10:26:49;;;;;;;16.67;9.13;;;;;;;3.77;41.92;98990.50;5099057;28;20542;-62
2022/03/08 10:29:25;;;;;;;15.93;9.63;;;;;;;3.82;42.38;98993.63;5099497;28;20230;-62
2022/03/08 10:32:05;;;;;;;15.07;8.67;;;;;;;3.77;42.35;98995.66;5099804;28;20231;-62
2022/03/08 10:34:32;;;;;;;13.27;8.17;;;;;;;3.95;42.15;98999.66;5099671;28;20183;-62
2022/03/08 10:37:07;;;;;;;15.40;8.83;;;;;;;4.02;41.85;98997.47;5098910;28;20198;-62
2022/03/08 10:39:35;;;;;;;15.87;9.47;;;;;;;4.18;41.66;98994.75;5099734;28;20699;-62
2022/03/08 10:42:02;;;;;;;18.20;9.13;;;;;;;4.16;40.85;99000.94;5101156;28;20200;-62
2022/03/08 10:44:39;;;;;;;13.27;8.47;;;;;;;4.18;40.71;98992.16;5099640;28;20197;-61
2022/03/08 10:47:08;;;;;;;16.10;9.57;;;;;;;4.24;41.35;98983.97;5102902;28;20238;-63
2022/03/08 10:49:36;;;;;;;13.10;8.70;;;;;;;4.39;42.00;98984.72;5101921;28;20267;-63
2022/03/08 10:52:06;;;;;;;15.03;8.70;;;;;;;4.56;39.95;98985.34;5102298;28;20668;-63
2022/03/08 10:54:35;;;;;;;14.73;8.00;;;;;;;4.65;39.64;98982.16;5104428;28;20190;-64
2022/03/08 10:57:02;;;;;;;14.53;8.97;;;;;;;4.63;40.98;98976.25;5106411;28;20214;-62
2022/03/08 10:59:29;;;;;;;15.50;8.73;;;;;;;4.77;41.13;98983.06;5106969;28;20208;-62
2022/03/08 11:01:56;;;;;;;15.57;8.83;;;;;;;4.78;40.80;98979.53;5110646;28;20193;-61
2022/03/08 11:04:25;;;;;;;14.13;8.53;;;;;;;4.80;40.11;98987.19;5110733;28;20199;-61
2022/03/08 11:06:53;;;;;;;17.10;8.53;;;;;;;4.87;39.97;98984.09;5111097;28;20177;-62
2022/03/08 11:09:21;;;;;;;15.40;7.60;;;;;;;5.08;39.76;98983.53;5114908;28;20738;-62
2022/03/08 11:11:49;;;;;;;14.60;8.53;;;;;;;5.12;40.07;98976.38;5115159;28;20194;-62
2022/03/08 11:14:16;;;;;;;14.73;8.50;;;;;;;5.25;40.01;98982.34;5114621;28;20199;-62
2022/03/08 11:16:50;;;;;;;13.33;8.43;;;;;;;5.28;39.39;98971.78;5115128;28;20247;-62
2022/03/08 11:19:18;;;;;;;14.00;8.53;;;;;;;5.25;40.26;98978.94;5115239;28;20198;-61
2022/03/08 11:21:46;;;;;;;13.53;9.57;;;;;;;5.26;40.55;98965.88;5115045;28;20193;-62
2022/03/08 11:24:14;;;;;;;14.97;9.30;;;;;;;5.30;40.81;98964.75;5114713;28;20212;-62
2022/03/08 11:26:42;;;;;;;15.90;9.77;;;;;;;5.37;40.54;98965.13;5114863;28;20185;-62
2022/03/08 11:29:10;;;;;;;15.67;8.97;;;;;;;5.28;40.34;98961.44;5115011;28;20207;-62
2022/03/08 11:31:39;;;;;;;15.37;9.33;;;;;;;5.35;40.57;98963.59;5114873;28;20181;-62
2022/03/08 11:34:13;;;;;;;14.03;8.30;;;;;;;5.42;39.56;98955.25;5114489;28;20256;-62
2022/03/08 11:36:45;;;;;;;16.30;9.37;;;;;;;5.46;39.40;98964.47;5114498;28;20227;-63
2022/03/08 11:39:24;;;;;;;14.90;10.13;;;;;;;5.54;38.68;98957.91;5115045;28;20185;-62
2022/03/08 11:41:53;;;;;;;13.77;8.57;;;;;;;5.63;39.08;98962.44;5114148;28;20203;-63